Time;durP1;ratioP1;P1;durP2;ratioP2;P2;SDS_P1;SDS_P2;PMS_P1;PMS_P2;Temp;Humidity;BMP_temperature;BMP_pressure;BME280_temperature;BME280_humidity;BME280_pressure;Samples;Min_cycle;Max_cycle;Signal;HPM_P1;HPM_P2
2023/12/16 00:00:16;;;;;;;17.38;8.55;;;8.20;99.90;;;;;;5046545;28;20278;-71
2023/12/16 00:02:43;;;;;;;17.10;7.30;;;8.20;99.90;;;;;;5044012;28;20209;-68
2023/12/16 00:05:11;;;;;;;17.25;7.45;;;8.20;99.90;;;;;;5041070;28;20200;-71
2023/12/16 00:07:38;;;;;;;35.28;10.68;;;8.20;99.90;;;;;;5036863;28;20728;-70
2023/12/16 00:10:07;;;;;;;14.57;6.57;;;8.20;99.90;;;;;;5044942;28;20204;-69
2023/12/16 00:12:34;;;;;;;20.23;7.15;;;8.30;99.90;;;;;;5042999;28;20324;-72
2023/12/16 00:15:01;;;;;;;19.55;7.05;;;8.30;99.90;;;;;;5034491;28;20615;-71
2023/12/16 00:17:28;;;;;;;20.02;7.03;;;8.30;99.90;;;;;;5044569;28;20307;-71
2023/12/16 00:19:55;;;;;;;22.05;7.28;;;8.30;99.90;;;;;;5044849;28;20246;-71
2023/12/16 00:22:25;;;;;;;14.40;6.13;;;8.30;99.90;;;;;;5051835;28;20231;-70
2023/12/16 00:24:52;;;;;;;22.17;6.95;;;8.30;99.90;;;;;;5034552;28;20262;-71
2023/12/16 00:27:20;;;;;;;17.95;6.63;;;8.30;99.90;;;;;;5038879;28;20219;-70
2023/12/16 00:29:47;;;;;;;14.60;6.07;;;8.20;99.90;;;;;;5037449;28;20243;-70
2023/12/16 00:32:14;;;;;;;20.73;6.85;;;8.30;99.90;;;;;;5038895;28;20204;-68
2023/12/16 00:34:41;;;;;;;20.85;6.85;;;8.30;99.90;;;;;;5033067;28;20209;-71
2023/12/16 00:37:08;;;;;;;19.65;6.93;;;8.40;99.90;;;;;;5045609;28;20730;-70
2023/12/16 00:39:36;;;;;;;17.65;7.68;;;8.40;99.90;;;;;;5045870;28;20282;-70
2023/12/16 00:42:04;;;;;;;16.67;5.13;;;8.40;99.90;;;;;;5037888;28;20232;-69
2023/12/16 00:44:33;;;;;;;14.55;6.25;;;8.40;99.90;;;;;;5037063;28;20200;-71
2023/12/16 00:47:00;;;;;;;17.35;6.15;;;8.40;99.90;;;;;;5046116;28;20256;-69
2023/12/16 00:49:29;;;;;;;14.07;6.18;;;8.40;99.90;;;;;;5037871;28;20201;-69
2023/12/16 00:51:56;;;;;;;21.55;5.75;;;8.50;99.90;;;;;;5044990;28;20200;-71
2023/12/16 00:54:23;;;;;;;15.43;4.60;;;8.40;99.90;;;;;;5038401;28;20304;-69
2023/12/16 00:56:51;;;;;;;13.48;6.18;;;8.40;99.90;;;;;;5037319;28;20224;-70
2023/12/16 00:59:19;;;;;;;21.17;6.97;;;8.40;99.90;;;;;;5053256;28;20261;-68
2023/12/16 01:01:46;;;;;;;16.52;5.47;;;8.40;99.90;;;;;;5048295;28;20208;-72
2023/12/16 01:04:13;;;;;;;16.13;6.45;;;8.40;99.90;;;;;;5045154;28;20655;-69
2023/12/16 01:06:40;;;;;;;15.20;5.10;;;8.40;99.90;;;;;;5034389;28;20270;-69
2023/12/16 01:09:07;;;;;;;11.73;6.30;;;8.40;99.90;;;;;;5038996;28;20235;-69
2023/12/16 01:11:34;;;;;;;23.67;6.20;;;8.40;99.90;;;;;;5041964;28;20203;-71
2023/12/16 01:14:03;;;;;;;11.43;5.00;;;8.40;99.90;;;;;;5046609;28;20207;-69
2023/12/16 01:16:30;;;;;;;14.50;5.40;;;8.50;99.90;;;;;;5040071;28;20698;-69
2023/12/16 01:18:57;;;;;;;16.88;5.40;;;8.50;99.90;;;;;;5043654;28;20203;-71
2023/12/16 01:21:24;;;;;;;15.65;5.28;;;8.50;99.90;;;;;;5046124;28;20276;-72
2023/12/16 01:23:51;;;;;;;17.17;5.50;;;8.50;99.90;;;;;;5041513;28;20227;-71
2023/12/16 01:26:18;;;;;;;19.83;4.43;;;8.50;99.90;;;;;;5031176;28;20220;-69
2023/12/16 01:28:45;;;;;;;21.40;4.90;;;8.40;99.90;;;;;;5041689;28;20208;-70
2023/12/16 01:31:13;;;;;;;14.82;5.57;;;8.50;99.90;;;;;;5033256;28;20701;-70
2023/12/16 01:33:41;;;;;;;9.43;3.70;;;8.40;99.90;;;;;;5042223;28;20665;-70
2023/12/16 01:36:08;;;;;;;11.88;5.30;;;8.40;99.90;;;;;;5035126;28;20209;-73
2023/12/16 01:38:35;;;;;;;13.68;5.10;;;8.40;99.90;;;;;;5039336;28;20261;-70
2023/12/16 01:41:03;;;;;;;12.90;5.25;;;8.50;99.90;;;;;;5040906;28;20245;-69
2023/12/16 01:43:30;;;;;;;20.40;6.07;;;8.50;99.90;;;;;;5040596;28;20209;-67
2023/12/16 01:46:02;;;;;;;18.20;4.95;;;8.50;99.90;;;;;;5033324;28;20235;-67
2023/12/16 01:48:31;;;;;;;16.08;5.35;;;8.50;99.90;;;;;;5034819;28;20204;-72
2023/12/16 01:50:58;;;;;;;10.52;4.45;;;8.50;99.90;;;;;;5038615;28;20244;-71
2023/12/16 01:53:28;;;;;;;12.82;4.22;;;8.50;99.90;;;;;;5037455;28;20208;-71
2023/12/16 01:55:57;;;;;;;10.68;4.90;;;8.50;99.90;;;;;;5033785;28;20200;-69
2023/12/16 01:58:25;;;;;;;12.73;4.28;;;8.50;99.90;;;;;;5040041;28;20513;-72
2023/12/16 02:00:52;;;;;;;8.88;5.03;;;8.50;99.90;;;;;;5043389;28;20228;-72
2023/12/16 02:03:20;;;;;;;11.82;5.05;;;8.50;99.90;;;;;;5037905;28;20630;-69
2023/12/16 02:05:48;;;;;;;11.57;3.78;;;8.50;99.90;;;;;;5042869;28;20264;-71
2023/12/16 02:08:16;;;;;;;10.63;3.83;;;8.60;99.90;;;;;;5053832;28;20259;-73
2023/12/16 02:10:44;;;;;;;12.23;4.13;;;8.60;99.90;;;;;;5044557;28;20242;-72
2023/12/16 02:13:11;;;;;;;15.05;4.07;;;8.60;99.90;;;;;;5035809;28;20215;-72
2023/12/16 02:15:38;;;;;;;11.27;4.38;;;8.70;99.90;;;;;;5049633;28;20635;-71
2023/12/16 02:18:05;;;;;;;14.63;4.45;;;8.60;99.90;;;;;;5038097;28;20220;-68
2023/12/16 02:20:32;;;;;;;10.15;4.00;;;8.70;99.90;;;;;;5050709;28;20238;-70
2023/12/16 02:23:02;;;;;;;10.75;4.07;;;8.70;99.90;;;;;;5048018;28;20237;-67
2023/12/16 02:25:31;;;;;;;12.02;4.32;;;8.70;99.90;;;;;;5047601;28;20205;-72
2023/12/16 02:27:58;;;;;;;8.75;4.47;;;8.70;99.90;;;;;;5048137;28;20228;-68
2023/12/16 02:30:25;;;;;;;10.63;5.85;;;8.70;99.90;;;;;;5054089;28;20615;-71
2023/12/16 02:32:55;;;;;;;9.55;4.00;;;8.70;99.90;;;;;;5039754;28;20274;-69
2023/12/16 02:35:22;;;;;;;7.05;3.58;;;8.70;99.90;;;;;;5051534;28;20691;-71
2023/12/16 02:37:49;;;;;;;14.98;4.72;;;8.70;99.90;;;;;;5051741;28;20235;-70
2023/12/16 02:40:19;;;;;;;10.88;3.78;;;8.70;99.90;;;;;;5035944;28;20229;-69
2023/12/16 02:43:10;;;;;;;13.82;3.70;;;8.60;99.90;;;;;;5047668;28;20211;-70
2023/12/16 02:45:38;;;;;;;15.35;4.63;;;8.60;99.90;;;;;;5047693;28;20675;-72
2023/12/16 02:48:06;;;;;;;7.07;2.97;;;8.60;99.90;;;;;;5050770;28;20297;-70
2023/12/16 02:51:10;;;;;;;9.93;4.63;;;8.60;99.90;;;;;;5055805;28;20229;-69
2023/12/16 02:53:37;;;;;;;12.20;3.15;;;8.60;99.90;;;;;;5059430;28;20200;-68
2023/12/16 02:56:26;;;;;;;9.93;3.78;;;8.60;99.90;;;;;;5055062;28;20617;-69
2023/12/16 02:58:53;;;;;;;13.00;4.20;;;8.60;99.90;;;;;;5049257;28;20203;-71
2023/12/16 03:01:30;;;;;;;10.65;4.03;;;8.70;99.90;;;;;;5050623;28;20208;-72
2023/12/16 03:03:57;;;;;;;14.30;4.25;;;8.60;99.90;;;;;;5046322;28;20250;-70
2023/12/16 03:06:24;;;;;;;9.55;4.53;;;8.60;99.90;;;;;;5043546;28;20224;-70
2023/12/16 03:08:51;;;;;;;9.23;4.63;;;8.60;99.90;;;;;;5043186;28;20244;-69
2023/12/16 03:11:18;;;;;;;8.73;4.38;;;8.60;99.90;;;;;;5039955;28;20197;-69
2023/12/16 03:13:45;;;;;;;14.10;4.10;;;8.60;99.90;;;;;;5039025;28;20231;-71
2023/12/16 03:16:13;;;;;;;8.48;3.92;;;8.60;99.90;;;;;;5039224;28;20228;-71
2023/12/16 03:18:41;;;;;;;15.38;4.10;;;8.70;99.90;;;;;;5037122;28;20250;-69
2023/12/16 03:21:08;;;;;;;18.17;4.57;;;8.60;99.90;;;;;;5035639;28;20224;-70
2023/12/16 03:23:36;;;;;;;8.85;3.75;;;8.60;99.90;;;;;;5038302;28;20201;-71
2023/12/16 03:26:03;;;;;;;11.13;3.40;;;8.60;99.90;;;;;;5035913;28;20204;-70
2023/12/16 03:28:30;;;;;;;5.53;3.10;;;8.50;99.90;;;;;;5050666;28;20228;-68
2023/12/16 03:30:57;;;;;;;12.75;3.35;;;8.50;99.90;;;;;;5049575;28;20236;-70
2023/12/16 03:33:24;;;;;;;10.60;3.58;;;8.50;99.90;;;;;;5049114;28;20516;-71
2023/12/16 03:35:52;;;;;;;21.15;4.15;;;8.50;99.90;;;;;;5034744;28;20266;-69
2023/12/16 03:38:19;;;;;;;11.25;3.60;;;8.50;99.90;;;;;;5043308;28;20254;-68
2023/12/16 03:40:46;;;;;;;8.18;3.28;;;8.40;99.90;;;;;;5039561;28;20707;-72
2023/12/16 03:43:13;;;;;;;6.32;3.45;;;8.40;99.90;;;;;;5044625;28;20266;-70
2023/12/16 03:45:40;;;;;;;8.18;3.25;;;8.40;99.90;;;;;;5039545;28;20258;-68
2023/12/16 03:48:07;;;;;;;6.88;3.53;;;8.30;99.90;;;;;;5044103;28;20271;-70
2023/12/16 03:50:34;;;;;;;11.07;4.53;;;8.30;99.90;;;;;;5041406;28;20631;-69
2023/12/16 03:53:03;;;;;;;9.55;4.10;;;8.30;99.90;;;;;;5043077;28;20291;-70
2023/12/16 03:55:30;;;;;;;8.80;4.93;;;8.30;99.90;;;;;;5041923;28;20200;-69
2023/12/16 03:57:57;;;;;;;7.93;4.18;;;8.20;99.90;;;;;;5040497;28;20709;-70
2023/12/16 04:00:24;;;;;;;10.23;4.07;;;8.20;99.90;;;;;;5045897;28;20243;-71
2023/12/16 04:02:51;;;;;;;11.13;4.05;;;8.20;99.90;;;;;;5046173;28;20606;-69
2023/12/16 04:05:18;;;;;;;6.90;3.30;;;8.10;99.90;;;;;;5034580;28;20263;-67
2023/12/16 04:07:45;;;;;;;9.25;2.90;;;8.00;99.90;;;;;;5045274;28;20228;-70
2023/12/16 04:10:13;;;;;;;13.15;3.65;;;8.00;99.90;;;;;;5045275;28;20599;-68
2023/12/16 04:12:40;;;;;;;15.07;4.05;;;8.00;99.90;;;;;;5038533;28;20278;-71
2023/12/16 04:15:11;;;;;;;12.75;4.18;;;7.90;99.90;;;;;;5046318;28;20200;-69
2023/12/16 04:17:38;;;;;;;13.10;5.55;;;7.90;99.90;;;;;;5052325;28;20289;-69
2023/12/16 04:20:06;;;;;;;9.68;3.20;;;7.90;99.90;;;;;;5041870;28;20205;-68
2023/12/16 04:22:33;;;;;;;10.10;4.15;;;7.90;99.90;;;;;;5043540;28;20270;-71
2023/12/16 04:25:00;;;;;;;9.88;3.67;;;7.90;99.90;;;;;;5047027;28;20239;-71
2023/12/16 04:27:28;;;;;;;12.88;4.60;;;7.90;99.90;;;;;;5048981;28;20227;-70
2023/12/16 04:29:55;;;;;;;11.32;4.13;;;7.80;99.90;;;;;;5049163;28;20244;-72
2023/12/16 04:32:22;;;;;;;11.35;5.07;;;7.80;99.90;;;;;;5055193;28;20397;-70
2023/12/16 04:34:49;;;;;;;10.82;4.20;;;7.80;99.90;;;;;;5036792;28;20257;-71
2023/12/16 04:37:16;;;;;;;10.10;4.93;;;7.80;99.90;;;;;;5038507;28;20306;-70
2023/12/16 04:39:43;;;;;;;12.27;4.60;;;7.80;99.90;;;;;;5041793;28;20250;-71
2023/12/16 04:42:11;;;;;;;7.53;3.75;;;7.80;99.90;;;;;;5038456;28;20264;-69
2023/12/16 04:44:39;;;;;;;16.27;4.55;;;7.80;99.90;;;;;;5039723;28;20215;-70
2023/12/16 04:47:07;;;;;;;4.78;3.25;;;7.80;99.90;;;;;;5043022;28;20277;-71
2023/12/16 04:49:34;;;;;;;11.30;4.47;;;7.70;99.90;;;;;;5037537;28;20212;-70
2023/12/16 04:52:01;;;;;;;9.25;3.97;;;7.70;99.90;;;;;;5038981;28;20220;-69
2023/12/16 04:54:28;;;;;;;12.75;4.25;;;7.70;99.90;;;;;;5047075;28;20211;-71
2023/12/16 04:56:55;;;;;;;8.52;3.40;;;7.70;99.90;;;;;;5036230;28;20315;-68
2023/12/16 04:59:22;;;;;;;15.40;4.97;;;7.70;99.90;;;;;;5033501;28;20200;-72
2023/12/16 05:01:50;;;;;;;9.48;4.95;;;7.70;99.90;;;;;;5036032;28;20684;-70
2023/12/16 05:04:17;;;;;;;10.90;3.85;;;7.70;99.90;;;;;;5043070;28;20248;-70
2023/12/16 05:06:44;;;;;;;11.73;4.75;;;7.70;99.90;;;;;;5042572;28;20252;-68
2023/12/16 05:09:12;;;;;;;8.95;3.10;;;7.70;99.90;;;;;;5035604;28;20227;-71
2023/12/16 05:11:39;;;;;;;7.35;4.25;;;7.70;99.90;;;;;;5040670;28;20200;-71
2023/12/16 05:14:06;;;;;;;12.38;3.90;;;7.70;99.90;;;;;;5035669;28;20331;-68
2023/12/16 05:16:33;;;;;;;12.65;4.22;;;7.70;99.90;;;;;;5036305;28;20267;-68
2023/12/16 05:19:03;;;;;;;16.48;3.85;;;7.60;99.90;;;;;;5038192;28;20227;-71
2023/12/16 05:21:30;;;;;;;11.35;4.47;;;7.60;99.90;;;;;;5033836;28;20307;-71
2023/12/16 05:23:56;;;;;;;13.10;3.70;;;7.70;99.90;;;;;;5035727;28;20299;-71
2023/12/16 05:26:23;;;;;;;8.75;3.70;;;7.60;99.90;;;;;;5039148;28;20617;-69
2023/12/16 05:28:51;;;;;;;10.55;3.15;;;7.70;99.90;;;;;;5034245;28;20263;-70
2023/12/16 05:31:18;;;;;;;9.55;3.80;;;7.60;99.90;;;;;;5042705;28;20208;-69
2023/12/16 05:33:45;;;;;;;9.10;3.67;;;7.60;99.90;;;;;;5040892;28;20270;-67
2023/12/16 05:36:13;;;;;;;12.00;4.18;;;7.60;99.90;;;;;;5039041;28;20244;-70
2023/12/16 05:38:40;;;;;;;11.68;3.88;;;7.60;99.90;;;;;;5047610;28;20195;-71
2023/12/16 05:41:07;;;;;;;10.93;3.70;;;7.60;99.90;;;;;;5045228;28;20655;-69
2023/12/16 05:43:35;;;;;;;17.60;4.75;;;7.60;99.90;;;;;;5054619;28;20226;-69
2023/12/16 05:46:02;;;;;;;6.40;3.45;;;7.60;99.90;;;;;;5049627;28;20289;-68
2023/12/16 05:48:29;;;;;;;11.48;4.05;;;7.70;99.90;;;;;;5045180;28;20235;-70
2023/12/16 05:50:57;;;;;;;7.30;3.42;;;7.60;99.90;;;;;;5054947;28;20277;-71
2023/12/16 05:53:25;;;;;;;9.02;4.00;;;7.70;99.90;;;;;;5050252;28;20257;-68
2023/12/16 05:55:52;;;;;;;10.93;3.63;;;7.70;99.90;;;;;;5055720;28;20571;-68
2023/12/16 05:58:19;;;;;;;13.23;5.85;;;7.70;99.90;;;;;;5052427;28;20205;-68
2023/12/16 06:00:46;;;;;;;7.30;3.53;;;7.60;99.90;;;;;;5045094;28;20240;-70
2023/12/16 06:03:13;;;;;;;11.82;4.35;;;7.70;99.90;;;;;;5049845;28;20327;-68
2023/12/16 06:05:40;;;;;;;8.82;3.90;;;7.70;99.90;;;;;;5040558;28;20617;-69
2023/12/16 06:08:07;;;;;;;13.32;5.45;;;7.70;99.90;;;;;;5046114;28;20277;-70
2023/12/16 06:10:35;;;;;;;9.80;4.10;;;7.70;99.90;;;;;;5038345;28;20227;-72
2023/12/16 06:13:02;;;;;;;7.40;3.70;;;7.80;99.90;;;;;;5041849;28;20201;-72
2023/12/16 06:15:29;;;;;;;10.15;4.25;;;7.80;99.90;;;;;;5038801;28;20192;-69
2023/12/16 06:17:57;;;;;;;12.70;4.40;;;7.80;99.90;;;;;;5041231;28;20252;-69
2023/12/16 06:20:24;;;;;;;10.93;3.47;;;7.80;99.90;;;;;;5039545;28;20284;-67
2023/12/16 06:22:51;;;;;;;14.88;4.72;;;7.80;99.90;;;;;;5053814;28;20234;-69
2023/12/16 06:25:18;;;;;;;10.05;3.65;;;7.80;99.90;;;;;;5047036;28;20232;-69
2023/12/16 06:27:47;;;;;;;8.02;3.72;;;7.80;99.90;;;;;;5052490;28;20220;-72
2023/12/16 06:30:15;;;;;;;11.90;5.30;;;7.80;99.90;;;;;;5046854;28;20217;-71
2023/12/16 06:32:42;;;;;;;11.38;3.53;;;7.80;99.90;;;;;;5052484;28;20609;-69
2023/12/16 06:35:09;;;;;;;13.15;4.35;;;7.70;99.90;;;;;;5041231;28;20652;-68
2023/12/16 06:37:36;;;;;;;8.38;3.30;;;7.60;99.90;;;;;;5045025;28;20274;-70
2023/12/16 06:40:04;;;;;;;6.53;3.53;;;7.60;99.90;;;;;;5052397;28;20258;-72
2023/12/16 06:42:31;;;;;;;17.02;5.72;;;7.60;99.90;;;;;;5051060;28;20311;-69
2023/12/16 06:44:59;;;;;;;14.95;4.50;;;7.60;99.90;;;;;;5046142;28;20197;-68
2023/12/16 06:47:26;;;;;;;9.63;3.70;;;7.50;99.90;;;;;;5044361;28;20256;-70
2023/12/16 06:49:54;;;;;;;10.40;4.03;;;7.50;99.90;;;;;;5046415;28;20239;-70
2023/12/16 06:52:22;;;;;;;16.23;5.30;;;7.60;99.90;;;;;;5050883;28;20275;-68
2023/12/16 06:54:49;;;;;;;9.45;3.58;;;7.60;99.90;;;;;;5054800;28;20247;-71
2023/12/16 06:57:15;;;;;;;14.70;4.80;;;7.60;99.90;;;;;;5050856;28;20254;-70
2023/12/16 06:59:42;;;;;;;15.57;5.25;;;7.60;99.90;;;;;;5057285;28;20257;-69
2023/12/16 07:02:11;;;;;;;11.60;6.05;;;7.60;99.90;;;;;;5045569;28;20783;-68
2023/12/16 07:04:38;;;;;;;13.82;5.80;;;7.60;99.90;;;;;;5060727;28;20235;-70
2023/12/16 07:07:05;;;;;;;13.32;4.40;;;7.60;99.90;;;;;;5047488;28;20224;-69
2023/12/16 07:09:32;;;;;;;8.50;4.05;;;7.70;99.90;;;;;;5044045;28;20200;-71
2023/12/16 07:11:59;;;;;;;12.48;4.13;;;7.70;99.90;;;;;;5037711;28;20250;-66
2023/12/16 07:14:28;;;;;;;15.30;5.25;;;7.70;99.90;;;;;;5047402;28;20283;-69
2023/12/16 07:16:56;;;;;;;7.95;3.60;;;7.80;99.90;;;;;;5053471;28;20254;-70
2023/12/16 07:19:24;;;;;;;17.80;5.32;;;7.80;99.90;;;;;;5050988;28;20196;-69
2023/12/16 07:21:53;;;;;;;13.90;5.70;;;7.80;99.90;;;;;;5043855;28;20220;-68
2023/12/16 07:24:20;;;;;;;12.90;5.97;;;7.90;99.90;;;;;;5048052;28;20662;-68
2023/12/16 07:26:47;;;;;;;14.10;3.85;;;7.90;99.90;;;;;;5045205;28;20744;-69
2023/12/16 07:29:16;;;;;;;18.42;7.18;;;7.90;99.90;;;;;;5046960;28;20208;-70
2023/12/16 07:31:47;;;;;;;11.10;4.57;;;7.90;99.90;;;;;;5040161;28;20242;-69
2023/12/16 07:34:14;;;;;;;9.98;3.88;;;8.00;99.90;;;;;;5036395;28;20585;-70
2023/12/16 07:36:43;;;;;;;11.90;4.90;;;8.00;99.90;;;;;;5041136;28;20290;-70
2023/12/16 07:39:10;;;;;;;11.07;5.53;;;8.00;99.90;;;;;;5039092;28;20205;-68
2023/12/16 07:41:37;;;;;;;11.25;4.50;;;8.00;99.90;;;;;;5034704;28;20224;-73
2023/12/16 07:44:04;;;;;;;16.00;6.10;;;8.00;99.90;;;;;;5048054;28;20204;-72
2023/12/16 07:46:31;;;;;;;14.85;5.10;;;8.10;99.90;;;;;;5049105;28;20220;-69
2023/12/16 07:48:58;;;;;;;13.70;4.80;;;8.10;99.90;;;;;;5038931;28;20205;-67
2023/12/16 07:51:25;;;;;;;14.85;6.60;;;8.10;99.90;;;;;;5043917;28;20608;-68
2023/12/16 07:53:55;;;;;;;15.95;5.45;;;8.10;99.90;;;;;;5045646;28;20198;-70
2023/12/16 07:56:23;;;;;;;22.77;7.05;;;8.20;99.90;;;;;;5052779;28;20639;-70
2023/12/16 07:58:51;;;;;;;11.23;5.32;;;8.20;99.90;;;;;;5047291;28;20209;-70
2023/12/16 08:01:19;;;;;;;19.65;6.25;;;8.20;99.90;;;;;;5045143;28;20201;-71
2023/12/16 08:03:47;;;;;;;10.10;4.70;;;8.30;99.90;;;;;;5046743;28;20244;-71
2023/12/16 08:06:16;;;;;;;14.93;5.47;;;8.30;99.90;;;;;;5056794;28;20281;-71
2023/12/16 08:08:44;;;;;;;18.38;6.75;;;8.30;99.90;;;;;;5051264;28;20197;-70
2023/12/16 08:11:13;;;;;;;16.67;5.22;;;8.40;99.90;;;;;;5051259;28;20201;-72
2023/12/16 08:13:40;;;;;;;15.20;5.65;;;8.40;99.90;;;;;;5046727;28;20688;-72
2023/12/16 08:16:10;;;;;;;19.48;5.85;;;8.30;99.90;;;;;;5044294;28;20209;-70
2023/12/16 08:18:36;;;;;;;13.98;5.90;;;8.40;99.90;;;;;;5050159;28;20272;-72
2023/12/16 08:21:04;;;;;;;15.65;5.95;;;8.50;99.90;;;;;;5043435;28;20200;-71
2023/12/16 08:23:31;;;;;;;15.27;4.88;;;8.50;99.90;;;;;;5040946;28;20212;-70
2023/12/16 08:25:58;;;;;;;15.73;5.57;;;8.50;99.90;;;;;;5048806;28;20236;-70
2023/12/16 08:28:26;;;;;;;16.38;6.40;;;8.40;99.90;;;;;;5047182;28;20235;-70
2023/12/16 08:30:54;;;;;;;18.85;6.68;;;8.50;99.90;;;;;;5046634;28;20240;-73
2023/12/16 08:33:21;;;;;;;18.65;6.10;;;8.50;99.90;;;;;;5048117;28;20232;-70
2023/12/16 08:35:48;;;;;;;12.45;5.03;;;8.50;99.90;;;;;;5045653;28;20251;-67
2023/12/16 08:38:15;;;;;;;17.02;5.43;;;8.60;99.90;;;;;;5046833;28;20255;-70
2023/12/16 08:40:41;;;;;;;24.25;7.20;;;8.60;99.90;;;;;;5045857;28;20247;-69
2023/12/16 08:43:09;;;;;;;16.67;6.18;;;8.60;99.90;;;;;;5046232;28;20264;-70
2023/12/16 08:45:38;;;;;;;9.55;5.38;;;8.60;99.90;;;;;;5045879;28;20291;-69
2023/12/16 08:48:05;;;;;;;24.02;7.47;;;8.60;99.90;;;;;;5050333;28;20231;-74
2023/12/16 08:50:33;;;;;;;19.75;5.95;;;8.60;99.90;;;;;;5048061;28;20729;-69
2023/12/16 08:53:00;;;;;;;19.77;6.50;;;8.60;99.90;;;;;;5046429;28;20196;-69
2023/12/16 08:55:27;;;;;;;24.75;7.38;;;8.60;99.90;;;;;;5044984;28;20273;-73
2023/12/16 08:57:54;;;;;;;17.42;6.72;;;8.50;99.90;;;;;;5048237;28;20306;-69
2023/12/16 09:00:21;;;;;;;19.73;6.82;;;8.60;99.90;;;;;;5049127;28;20236;-67
2023/12/16 09:02:50;;;;;;;17.35;7.93;;;8.70;99.90;;;;;;5047932;28;20213;-72
2023/12/16 09:05:19;;;;;;;20.13;6.93;;;8.80;99.90;;;;;;5048145;28;20290;-70
2023/12/16 09:07:46;;;;;;;17.45;7.57;;;8.70;99.90;;;;;;5046034;28;20694;-69
2023/12/16 09:10:13;;;;;;;21.95;7.80;;;8.60;99.90;;;;;;5040948;28;20709;-72
2023/12/16 09:12:40;;;;;;;20.15;7.72;;;8.70;99.90;;;;;;5041169;28;20581;-71
2023/12/16 09:15:08;;;;;;;17.80;8.10;;;8.80;99.90;;;;;;5043732;28;20292;-70
2023/12/16 09:17:35;;;;;;;21.15;7.63;;;8.90;99.90;;;;;;5039408;28;20227;-70
2023/12/16 09:20:07;;;;;;;24.25;9.13;;;8.70;99.90;;;;;;5041622;28;20197;-70
2023/12/16 09:22:34;;;;;;;24.48;8.57;;;8.60;99.90;;;;;;5037218;28;20601;-69
2023/12/16 09:25:04;;;;;;;27.75;8.43;;;8.50;99.90;;;;;;5046392;28;20239;-69
2023/12/16 09:27:31;;;;;;;27.02;9.27;;;8.50;99.90;;;;;;5040107;28;20220;-72
2023/12/16 09:29:58;;;;;;;28.65;11.40;;;8.50;99.90;;;;;;5046772;28;20630;-70
2023/12/16 09:32:25;;;;;;;27.48;9.95;;;8.50;99.90;;;;;;5035984;28;20246;-72
2023/12/16 09:34:52;;;;;;;25.67;8.98;;;8.50;99.90;;;;;;5045283;28;20204;-70
2023/12/16 09:37:20;;;;;;;27.45;10.25;;;8.50;99.90;;;;;;5049311;28;20235;-69
2023/12/16 09:39:47;;;;;;;26.35;10.57;;;8.40;99.90;;;;;;5044819;28;20247;-67
2023/12/16 09:42:14;;;;;;;22.45;10.40;;;8.40;99.90;;;;;;5032595;28;20224;-67
2023/12/16 09:44:45;;;;;;;29.70;11.52;;;8.40;99.90;;;;;;5041027;28;20201;-70
2023/12/16 09:47:13;;;;;;;30.85;11.82;;;8.40;99.90;;;;;;5045829;28;20270;-71
2023/12/16 09:49:42;;;;;;;28.50;11.55;;;8.40;99.90;;;;;;5042286;28;20265;-69
2023/12/16 09:52:08;;;;;;;29.42;11.45;;;8.40;99.90;;;;;;5041160;28;20210;-71
2023/12/16 09:54:38;;;;;;;24.80;9.75;;;8.40;99.90;;;;;;5042212;28;20628;-70
2023/12/16 09:57:06;;;;;;;33.20;11.63;;;8.40;99.90;;;;;;5034456;28;20220;-70
2023/12/16 09:59:34;;;;;;;28.48;10.45;;;8.40;99.90;;;;;;5035485;28;20664;-71
2023/12/16 10:02:04;;;;;;;34.15;11.50;;;8.50;99.90;;;;;;5037230;28;20212;-70
2023/12/16 10:04:32;;;;;;;38.20;10.77;;;8.50;99.90;;;;;;5043972;28;20306;-71
2023/12/16 10:06:59;;;;;;;25.98;10.82;;;8.50;99.90;;;;;;5041570;28;20259;-72
2023/12/16 10:09:26;;;;;;;24.38;11.02;;;8.50;99.90;;;;;;5043267;28;20563;-70
2023/12/16 10:11:59;;;;;;;23.40;12.50;;;8.50;99.90;;;;;;5051207;28;20258;-70
2023/12/16 10:14:26;;;;;;;19.73;10.82;;;8.40;99.90;;;;;;5038463;28;20205;-69
2023/12/16 10:17:02;;;;;;;24.73;11.63;;;8.50;99.90;;;;;;5038736;28;20255;-69
2023/12/16 10:19:29;;;;;;;25.13;11.95;;;8.50;99.90;;;;;;5027408;28;20631;-71
2023/12/16 10:21:57;;;;;;;24.88;10.60;;;8.40;99.90;;;;;;5050459;28;20257;-69
2023/12/16 10:24:24;;;;;;;30.55;11.65;;;8.40;99.90;;;;;;5042172;28;20256;-72
2023/12/16 10:26:51;;;;;;;32.95;12.88;;;8.40;99.90;;;;;;5038975;28;20278;-68
2023/12/16 10:29:20;;;;;;;25.75;11.32;;;8.50;99.90;;;;;;5048984;28;20246;-71
2023/12/16 10:31:47;;;;;;;26.52;10.60;;;8.50;99.90;;;;;;5048663;28;20240;-70
2023/12/16 10:34:17;;;;;;;25.40;12.18;;;8.50;99.90;;;;;;5044819;28;20232;-69
2023/12/16 10:36:44;;;;;;;24.48;12.35;;;8.50;99.90;;;;;;5050589;28;20243;-69
2023/12/16 10:39:12;;;;;;;24.10;11.70;;;8.50;99.90;;;;;;5051514;28;20246;-70
2023/12/16 10:41:39;;;;;;;25.13;10.75;;;8.50;99.90;;;;;;5040691;28;20223;-71
2023/12/16 10:44:06;;;;;;;37.95;14.63;;;8.50;99.90;;;;;;5044824;28;20295;-69
2023/12/16 10:46:36;;;;;;;29.35;12.32;;;8.50;99.90;;;;;;5039158;28;20251;-69
2023/12/16 10:49:08;;;;;;;33.47;13.27;;;8.50;99.90;;;;;;5047337;28;20311;-69
2023/12/16 10:51:43;;;;;;;26.00;14.25;;;8.50;99.90;;;;;;5050712;28;20287;-70
2023/12/16 10:54:33;;;;;;;19.13;14.30;;;8.40;99.90;;;;;;5040479;28;20802;-70
2023/12/16 10:57:12;;;;;;;30.30;14.52;;;8.40;99.90;;;;;;5043037;28;20302;-69
2023/12/16 10:59:44;;;;;;;25.25;12.70;;;8.40;99.90;;;;;;5029521;28;20196;-71
2023/12/16 11:02:21;;;;;;;35.85;14.40;;;8.40;99.90;;;;;;5054167;28;20239;-72
2023/12/16 11:04:52;;;;;;;26.00;13.48;;;8.40;99.90;;;;;;5034796;28;20260;-69
2023/12/16 11:07:21;;;;;;;27.20;14.40;;;8.40;99.90;;;;;;5037752;28;20311;-68
2023/12/16 11:09:48;;;;;;;30.65;15.65;;;8.40;99.90;;;;;;5046530;28;20693;-68
2023/12/16 11:12:16;;;;;;;36.05;13.38;;;8.40;99.90;;;;;;5048214;28;20213;-72
2023/12/16 11:14:44;;;;;;;26.75;13.98;;;8.40;99.90;;;;;;5046550;28;20249;-73
2023/12/16 11:17:15;;;;;;;23.23;13.95;;;8.50;99.90;;;;;;5039739;28;20229;-72
2023/12/16 11:19:46;;;;;;;22.05;12.80;;;8.50;99.90;;;;;;5035720;28;20212;-69
2023/12/16 11:22:16;;;;;;;25.45;14.35;;;8.50;99.90;;;;;;5047372;28;20287;-71
2023/12/16 11:24:45;;;;;;;27.90;13.70;;;8.60;99.90;;;;;;5051725;28;20297;-69
2023/12/16 11:27:12;;;;;;;31.00;14.93;;;8.50;99.90;;;;;;5049172;28;20705;-68
2023/12/16 11:29:42;;;;;;;33.42;14.02;;;8.50;99.90;;;;;;5048633;28;20232;-70
2023/12/16 11:32:12;;;;;;;29.08;15.35;;;8.50;99.90;;;;;;5055665;28;20242;-68
2023/12/16 11:34:43;;;;;;;31.15;15.30;;;8.50;99.90;;;;;;5042333;28;20224;-70
2023/12/16 11:37:10;;;;;;;30.13;15.60;;;8.60;99.90;;;;;;5043296;28;20236;-68
2023/12/16 11:39:38;;;;;;;21.65;14.35;;;8.60;99.90;;;;;;5018937;28;20205;-69
2023/12/16 11:42:06;;;;;;;33.78;15.30;;;8.60;99.90;;;;;;5043551;28;20368;-68
2023/12/16 11:44:52;;;;;;;27.42;14.60;;;8.60;99.90;;;;;;5037779;28;20255;-72
2023/12/16 11:47:23;;;;;;;30.85;14.98;;;8.60;99.90;;;;;;5041007;28;20228;-69
2023/12/16 11:49:50;;;;;;;33.17;15.68;;;8.70;99.90;;;;;;5039239;28;20211;-69
2023/12/16 11:52:18;;;;;;;31.15;13.93;;;8.70;99.90;;;;;;5042035;28;20204;-69
2023/12/16 11:54:45;;;;;;;22.05;14.07;;;8.70;99.90;;;;;;5036420;28;20244;-68
2023/12/16 11:57:12;;;;;;;31.00;13.50;;;8.70;99.90;;;;;;5039889;28;20756;-69
2023/12/16 11:59:39;;;;;;;28.23;14.27;;;8.70;99.90;;;;;;5041211;28;20211;-68
2023/12/16 12:02:07;;;;;;;27.95;15.57;;;8.70;99.90;;;;;;5045987;28;20197;-70
2023/12/16 12:04:37;;;;;;;31.98;16.30;;;8.80;99.90;;;;;;5047128;28;20231;-69
2023/12/16 12:07:05;;;;;;;22.77;13.23;;;8.80;99.90;;;;;;5038325;28;20251;-72
2023/12/16 12:09:31;;;;;;;30.15;15.00;;;8.80;99.90;;;;;;5054336;28;20573;-72
2023/12/16 12:11:58;;;;;;;21.77;13.95;;;8.90;99.90;;;;;;5055210;28;20694;-68
2023/12/16 12:14:26;;;;;;;30.15;15.40;;;8.90;99.90;;;;;;5050690;28;20200;-71
2023/12/16 12:16:53;;;;;;;27.83;17.27;;;8.90;99.90;;;;;;5044354;28;20252;-70
2023/12/16 12:19:20;;;;;;;28.58;16.92;;;8.90;99.90;;;;;;5042490;28;20253;-71
2023/12/16 12:21:51;;;;;;;25.55;15.82;;;8.90;99.90;;;;;;5043258;28;20204;-71
2023/12/16 12:24:18;;;;;;;38.28;17.35;;;8.90;99.90;;;;;;5049669;28;20216;-71
2023/12/16 12:26:46;;;;;;;31.55;15.85;;;8.90;99.90;;;;;;5037094;28;20224;-70
2023/12/16 12:29:13;;;;;;;33.35;17.50;;;8.90;99.90;;;;;;5043890;28;20200;-70
2023/12/16 12:31:44;;;;;;;27.60;16.10;;;8.90;99.90;;;;;;5052693;28;20200;-69
2023/12/16 12:34:17;;;;;;;30.67;17.35;;;8.90;99.90;;;;;;5051476;28;20228;-70
2023/12/16 12:36:44;;;;;;;33.20;18.58;;;8.90;99.90;;;;;;5032242;28;20661;-71
2023/12/16 12:39:15;;;;;;;33.05;16.60;;;8.90;99.90;;;;;;5039232;28;20238;-68
2023/12/16 12:41:42;;;;;;;37.83;17.73;;;8.80;99.90;;;;;;5038325;28;20236;-68
2023/12/16 12:44:11;;;;;;;34.05;18.95;;;8.80;99.90;;;;;;5040977;28;20307;-69
2023/12/16 12:46:47;;;;;;;42.22;18.33;;;8.80;99.90;;;;;;5045238;28;20226;-69
2023/12/16 12:49:14;;;;;;;40.30;21.15;;;8.80;99.90;;;;;;5040258;28;20303;-71